Time;durP1;ratioP1;P1;durP2;ratioP2;P2;SDS_P1;SDS_P2;PMS_P1;PMS_P2;Temp;Humidity;BMP_temperature;BMP_pressure;BME280_temperature;BME280_humidity;BME280_pressure;Samples;Min_cycle;Max_cycle;Signal;HPM_P1;HPM_P2
2022/01/12 00:01:42;;;;;;;27.70;15.13;;;4.70;99.90;;;;;;5003748;28;1062766;-78
2022/01/12 00:04:12;;;;;;;17.77;11.70;;;4.70;99.90;;;;;;5041139;28;20040;-78
2022/01/12 00:06:37;;;;;;;17.87;15.00;;;4.70;99.90;;;;;;5024315;28;20174;-78
2022/01/12 00:09:07;;;;;;;22.80;16.15;;;4.80;99.90;;;;;;5023809;28;20135;-78
2022/01/12 00:11:35;;;;;;;33.03;15.50;;;4.80;99.90;;;;;;5041471;28;20041;-77
2022/01/12 00:14:00;;;;;;;22.67;16.80;;;4.80;99.90;;;;;;5023379;28;20078;-79
2022/01/12 00:16:26;;;;;;;22.45;14.65;;;4.80;99.90;;;;;;5007371;28;20037;-78
2022/01/12 00:18:52;;;;;;;23.25;13.80;;;4.80;99.90;;;;;;5022501;28;20447;-78
2022/01/12 00:21:17;;;;;;;22.70;10.73;;;4.80;99.90;;;;;;5019982;28;20523;-78
2022/01/12 00:23:43;;;;;;;19.63;12.75;;;4.80;99.90;;;;;;5032853;28;20709;-78
2022/01/12 00:26:12;;;;;;;15.30;11.43;;;4.80;99.90;;;;;;5040094;28;20388;-78
2022/01/12 00:34:10;;;;;;;21.70;14.23;;;4.80;99.90;;;;;;5023400;28;20059;-78
2022/01/12 00:36:36;;;;;;;35.83;12.98;;;4.80;99.90;;;;;;5022565;28;20067;-78
2022/01/12 00:39:04;;;;;;;20.60;12.82;;;4.80;99.90;;;;;;5041109;28;20078;-78
2022/01/12 00:41:30;;;;;;;13.75;11.32;;;4.80;99.90;;;;;;5023168;28;20175;-78
2022/01/12 00:44:00;;;;;;;30.55;14.80;;;4.80;99.90;;;;;;5023248;28;20144;-78
2022/01/12 00:46:30;;;;;;;20.83;13.68;;;4.80;99.90;;;;;;5040729;28;20048;-78
2022/01/12 00:48:57;;;;;;;16.75;12.38;;;4.80;99.90;;;;;;5039458;28;20039;-79
2022/01/12 00:51:26;;;;;;;21.73;14.65;;;4.90;99.90;;;;;;5040642;28;20041;-78
2022/01/12 00:53:53;;;;;;;19.35;8.63;;;4.80;99.90;;;;;;5040728;28;20060;-78
2022/01/12 00:56:18;;;;;;;20.02;13.82;;;4.90;99.90;;;;;;5040628;28;20422;-78
2022/01/12 00:58:44;;;;;;;13.15;9.60;;;4.90;99.90;;;;;;5041301;28;20048;-78
2022/01/12 01:01:09;;;;;;;41.60;13.48;;;4.90;99.90;;;;;;5040732;28;20041;-78
2022/01/12 01:03:35;;;;;;;23.63;14.48;;;4.90;99.90;;;;;;5021682;28;20068;-78
2022/01/12 01:06:01;;;;;;;28.73;14.23;;;4.90;99.90;;;;;;5040765;28;20535;-78
2022/01/12 01:08:27;;;;;;;13.60;10.38;;;4.90;99.90;;;;;;5022974;28;20055;-77
2022/01/12 01:10:56;;;;;;;19.70;13.30;;;4.90;99.90;;;;;;5023126;28;20041;-79
2022/01/12 01:13:26;;;;;;;17.15;12.25;;;4.90;99.90;;;;;;5040092;28;20049;-78
2022/01/12 01:16:16;;;;;;;35.35;13.98;;;4.90;99.90;;;;;;5040985;28;20479;-78
2022/01/12 01:26:55;;;;;;;21.30;12.93;;;4.90;99.90;;;;;;5038815;28;20064;-78
2022/01/12 01:29:20;;;;;;;36.60;14.07;;;4.90;99.90;;;;;;5038793;28;20049;-79
2022/01/12 01:31:46;;;;;;;21.67;13.55;;;4.90;99.90;;;;;;5024984;28;20049;-78
2022/01/12 01:34:14;;;;;;;32.45;12.95;;;4.90;99.90;;;;;;5026180;28;20067;-77
2022/01/12 01:36:49;;;;;;;24.17;13.55;;;4.90;99.90;;;;;;5044122;28;20076;-79
2022/01/12 01:39:18;;;;;;;28.55;12.07;;;4.90;99.90;;;;;;5010261;28;20057;-78
2022/01/12 01:41:50;;;;;;;21.08;10.95;;;5.00;99.90;;;;;;5034642;28;20072;-78
2022/01/12 01:54:56;;;;;;;7.35;6.72;;;5.00;99.90;;;;;;5043055;28;20152;-78
2022/01/12 01:57:24;;;;;;;7.90;7.18;;;5.10;99.90;;;;;;5042587;28;20135;-78
2022/01/12 01:59:50;;;;;;;8.45;7.57;;;5.10;99.90;;;;;;5044275;28;20044;-78
2022/01/12 02:02:16;;;;;;;8.30;5.82;;;5.10;99.90;;;;;;5025297;28;20514;-78
2022/01/12 02:04:42;;;;;;;11.45;6.85;;;5.10;99.90;;;;;;5043041;28;20076;-78
2022/01/12 02:07:07;;;;;;;14.88;6.88;;;5.10;99.90;;;;;;5043034;28;20084;-78
2022/01/12 02:09:36;;;;;;;9.38;6.55;;;5.10;99.90;;;;;;5042825;28;20076;-78
2022/01/12 02:12:02;;;;;;;11.55;6.70;;;5.10;99.90;;;;;;5043699;28;20083;-78
2022/01/12 02:14:29;;;;;;;8.52;5.75;;;5.00;99.90;;;;;;5043643;28;20056;-78
2022/01/12 02:17:01;;;;;;;14.40;6.00;;;5.00;99.90;;;;;;5043900;28;20052;-78
2022/01/12 02:19:47;;;;;;;24.23;6.57;;;4.90;99.90;;;;;;5041707;28;20089;-78
2022/01/12 02:36:14;;;;;;;27.20;6.80;;;4.60;99.90;;;;;;5025243;28;20060;-78
2022/01/12 02:41:24;;;;;;;30.23;3.65;;;4.50;99.90;;;;;;5042449;28;20446;-78
2022/01/12 02:54:49;;;;;;;5.65;4.78;;;4.40;99.90;;;;;;5042558;28;20053;-78
2022/01/12 02:57:15;;;;;;;33.70;4.13;;;4.30;99.90;;;;;;5043420;28;20045;-78
2022/01/12 03:00:01;;;;;;;7.10;4.05;;;4.30;99.90;;;;;;5032498;28;20073;-78
2022/01/12 03:02:32;;;;;;;2.37;1.97;;;4.20;99.90;;;;;;5024088;28;20144;-78
2022/01/12 03:05:26;;;;;;;4.53;3.38;;;4.20;99.90;;;;;;5025616;28;20279;-78
2022/01/12 03:07:53;;;;;;;3.57;2.60;;;4.20;99.90;;;;;;5025108;28;20044;-78
2022/01/12 03:10:19;;;;;;;4.20;3.83;;;4.10;99.90;;;;;;5042074;28;20440;-78
2022/01/12 03:12:45;;;;;;;3.37;2.13;;;4.10;99.90;;;;;;5025332;28;20047;-78
2022/01/12 03:15:11;;;;;;;18.00;3.03;;;4.10;99.90;;;;;;5043052;28;20136;-78
2022/01/12 03:17:37;;;;;;;4.80;3.20;;;4.00;99.90;;;;;;5041737;28;20120;-79
2022/01/12 03:20:07;;;;;;;5.80;3.60;;;4.00;99.90;;;;;;5042958;28;20037;-78
2022/01/12 03:22:33;;;;;;;2.87;2.70;;;4.00;99.90;;;;;;5042279;28;20037;-78
2022/01/12 03:24:58;;;;;;;4.17;2.10;;;4.00;99.90;;;;;;5042359;28;20120;-78
2022/01/12 03:27:26;;;;;;;2.90;2.23;;;4.00;99.90;;;;;;5042570;28;20102;-78
2022/01/12 03:29:55;;;;;;;3.97;2.63;;;3.90;99.90;;;;;;5033840;28;20107;-79
2022/01/12 03:32:31;;;;;;;1.92;1.83;;;3.90;99.90;;;;;;5021878;28;20107;-79
2022/01/12 03:35:07;;;;;;;3.23;3.03;;;3.90;99.90;;;;;;5022323;28;20056;-78
2022/01/12 03:37:41;;;;;;;6.00;2.13;;;3.90;99.90;;;;;;5003872;28;20049;-78
2022/01/12 03:40:09;;;;;;;1.43;1.33;;;3.80;99.90;;;;;;5022304;28;20625;-78
2022/01/12 03:42:35;;;;;;;1.93;1.83;;;3.80;99.90;;;;;;5004556;28;20111;-78
2022/01/12 03:45:01;;;;;;;5.40;2.27;;;3.70;99.90;;;;;;5022594;28;20041;-78
2022/01/12 03:47:26;;;;;;;8.03;1.70;;;3.70;99.90;;;;;;5003373;28;20522;-78
2022/01/12 03:49:52;;;;;;;1.93;1.37;;;3.70;99.90;;;;;;5021931;28;20392;-78
2022/01/12 03:52:17;;;;;;;3.87;2.20;;;3.70;99.90;;;;;;5021864;28;20119;-78
2022/01/12 03:54:43;;;;;;;2.67;2.47;;;3.70;99.90;;;;;;5003873;28;20091;-78
2022/01/12 03:57:09;;;;;;;2.07;1.87;;;3.60;99.90;;;;;;5035223;28;20036;-78
2022/01/12 03:59:34;;;;;;;3.10;1.83;;;3.60;99.90;;;;;;5041623;28;20874;-78
2022/01/12 04:02:00;;;;;;;3.60;1.33;;;3.60;99.90;;;;;;5040206;28;20049;-78
2022/01/12 04:04:30;;;;;;;1.10;1.10;;;3.60;99.90;;;;;;5041497;28;20166;-78
2022/01/12 04:09:41;;;;;;;1.73;1.37;;;3.60;99.90;;;;;;5041704;28;20048;-78
2022/01/12 04:12:06;;;;;;;2.00;1.57;;;3.60;99.90;;;;;;5041433;28;20403;-78
2022/01/12 04:14:32;;;;;;;0.70;0.70;;;3.60;99.90;;;;;;5039905;28;20137;-78
2022/01/12 04:16:57;;;;;;;0.67;0.53;;;3.60;99.90;;;;;;5040828;28;20041;-78
2022/01/12 04:19:25;;;;;;;2.17;1.23;;;3.50;99.90;;;;;;5041177;28;20055;-76
2022/01/12 04:21:50;;;;;;;2.83;1.17;;;3.50;99.90;;;;;;5040224;28;20052;-77
2022/01/12 04:24:16;;;;;;;0.97;0.97;;;3.50;99.90;;;;;;5032634;28;20127;-74
2022/01/12 04:26:42;;;;;;;2.93;1.93;;;3.40;99.90;;;;;;5024391;28;20041;-77
2022/01/12 04:29:08;;;;;;;1.07;0.97;;;3.40;99.90;;;;;;5040467;28;20037;-77
2022/01/12 04:31:35;;;;;;;0.97;0.97;;;3.40;99.90;;;;;;5019788;28;20301;-78
2022/01/12 04:34:02;;;;;;;1.40;1.33;;;3.30;99.90;;;;;;5020416;28;20491;-77
2022/01/12 04:36:28;;;;;;;3.00;1.13;;;3.40;99.90;;;;;;5020802;28;20539;-78
2022/01/12 04:38:53;;;;;;;5.77;1.27;;;3.40;99.90;;;;;;5003142;28;20047;-78
2022/01/12 04:41:19;;;;;;;0.57;0.57;;;3.30;99.90;;;;;;5003804;28;20589;-78
2022/01/12 04:43:45;;;;;;;0.80;0.80;;;3.30;99.90;;;;;;5021538;28;20045;-77
2022/01/12 04:51:10;;;;;;;1.37;0.90;;;3.30;99.90;;;;;;5021064;28;20050;-77
2022/01/12 04:53:36;;;;;;;0.57;0.57;;;3.20;99.90;;;;;;5008845;28;20040;-77
2022/01/12 04:56:02;;;;;;;0.80;0.80;;;3.20;99.90;;;;;;5023051;28;20126;-78
2022/01/12 04:58:28;;;;;;;0.40;0.40;;;3.20;99.90;;;;;;5022840;28;20556;-77
2022/01/12 05:00:58;;;;;;;1.20;0.80;;;3.10;99.90;;;;;;5040643;28;20399;-77
2022/01/12 05:09:07;;;;;;;2.63;0.80;;;3.10;99.90;;;;;;5022593;28;20056;-78
2022/01/12 05:14:18;;;;;;;0.63;0.63;;;3.10;99.90;;;;;;5022514;28;20218;-78
2022/01/12 05:16:44;;;;;;;0.53;0.53;;;3.10;99.90;;;;;;5022333;28;20060;-78
2022/01/12 05:19:09;;;;;;;0.20;0.20;;;3.00;99.90;;;;;;5040900;28;20041;-78
2022/01/12 05:21:35;;;;;;;0.20;0.20;;;3.00;99.90;;;;;;5028879;28;20041;-77
2022/01/12 05:24:06;;;;;;;0.40;0.40;;;3.00;99.90;;;;;;5040397;28;20052;-77
2022/01/12 05:26:32;;;;;;;0.10;0.10;;;3.00;99.90;;;;;;5040489;28;20091;-77
2022/01/12 05:28:58;;;;;;;0.30;0.30;;;3.00;99.90;;;;;;5040320;28;20434;-78
2022/01/12 05:31:24;;;;;;;0.43;0.43;;;3.00;99.90;;;;;;5040194;28;20049;-78
2022/01/12 05:33:49;;;;;;;0.33;0.17;;;3.00;99.90;;;;;;5039717;28;20049;-78
2022/01/12 05:36:17;;;;;;;0.27;0.27;;;3.00;99.90;;;;;;5040500;28;20059;-77
2022/01/12 05:38:44;;;;;;;0.10;0.10;;;3.00;99.90;;;;;;5023210;28;20099;-77
2022/01/12 05:41:10;;;;;;;0.20;0.20;;;3.00;99.90;;;;;;5022475;28;20045;-77
2022/01/12 05:43:37;;;;;;;0.10;0.10;;;2.90;99.90;;;;;;5022753;28;20506;-77
2022/01/12 05:46:14;;;;;;;0.80;0.80;;;2.90;99.90;;;;;;5021011;28;20036;-78
2022/01/12 05:51:27;;;;;;;0.53;0.53;;;2.90;99.90;;;;;;5039713;28;20055;-78
2022/01/12 05:53:53;;;;;;;0.67;0.60;;;3.00;99.90;;;;;;5039019;28;20029;-78
2022/01/12 05:56:19;;;;;;;0.57;0.57;;;3.00;99.90;;;;;;5038871;28;20049;-78
2022/01/12 05:58:45;;;;;;;0.27;0.27;;;2.90;99.90;;;;;;5039332;28;20049;-77
2022/01/12 06:01:10;;;;;;;3.37;1.00;;;2.90;99.90;;;;;;5040611;28;20041;-78
2022/01/12 06:03:36;;;;;;;0.80;0.70;;;2.90;99.90;;;;;;5037947;28;20269;-78
2022/01/12 06:06:02;;;;;;;1.33;0.80;;;2.90;99.90;;;;;;5039892;28;20041;-77
2022/01/12 06:08:27;;;;;;;0.30;0.30;;;2.90;99.90;;;;;;5039679;28;20048;-78
2022/01/12 06:10:53;;;;;;;1.60;1.47;;;2.80;99.90;;;;;;5039243;28;20053;-77
2022/01/12 06:13:18;;;;;;;1.30;1.20;;;2.80;99.90;;;;;;5040466;28;20041;-78
2022/01/12 06:15:44;;;;;;;1.70;1.00;;;2.80;99.90;;;;;;5040057;28;20048;-78
2022/01/12 06:18:09;;;;;;;1.10;1.00;;;2.70;99.90;;;;;;5027953;28;20065;-78
2022/01/12 06:20:35;;;;;;;1.37;0.40;;;2.70;99.90;;;;;;5005939;28;20044;-78
2022/01/12 06:23:01;;;;;;;2.20;0.77;;;2.70;99.90;;;;;;5035854;28;20040;-78
2022/01/12 06:25:26;;;;;;;0.57;0.50;;;2.70;99.90;;;;;;5042697;28;20041;-78
2022/01/12 06:27:59;;;;;;;1.10;1.10;;;2.70;99.90;;;;;;5035872;28;20135;-78
2022/01/12 06:32:52;;;;;;;0.47;0.47;;;2.70;99.90;;;;;;5029403;28;20056;-77
2022/01/12 06:35:18;;;;;;;0.33;0.33;;;2.70;99.90;;;;;;5038702;28;20040;-84
2022/01/12 06:37:44;;;;;;;0.10;0.10;;;2.70;99.90;;;;;;5037236;28;20544;-89
2022/01/12 06:40:12;;;;;;;0.40;0.40;;;2.70;99.90;;;;;;5037069;28;20124;-80
2022/01/12 06:42:37;;;;;;;0.43;0.43;;;2.70;99.90;;;;;;5028687;28;20044;-80
2022/01/12 06:45:03;;;;;;;0.30;0.30;;;2.70;99.90;;;;;;5043005;28;20029;-79
2022/01/12 06:47:29;;;;;;;0.53;0.53;;;2.70;99.90;;;;;;5040466;28;20394;-80
2022/01/12 06:49:54;;;;;;;0.30;0.30;;;2.70;99.90;;;;;;5035582;28;20080;-76
2022/01/12 06:52:20;;;;;;;2.57;0.77;;;2.70;99.90;;;;;;5043637;28;20124;-77
2022/01/12 06:54:45;;;;;;;0.23;0.23;;;2.70;99.90;;;;;;5041214;28;20072;-77
2022/01/12 06:57:11;;;;;;;0.17;0.17;;;2.70;99.90;;;;;;5027555;28;20041;-77
2022/01/12 06:59:37;;;;;;;0.40;0.40;;;2.60;99.90;;;;;;5041792;28;20041;-78
2022/01/12 07:02:02;;;;;;;1.00;0.70;;;2.70;99.90;;;;;;5021131;28;20560;-77
2022/01/12 07:04:28;;;;;;;1.03;0.93;;;2.60;99.90;;;;;;5042124;28;20082;-79
2022/01/12 07:06:53;;;;;;;0.37;0.33;;;2.60;99.90;;;;;;5041981;28;20041;-77
2022/01/12 07:09:19;;;;;;;0.27;0.27;;;2.60;99.90;;;;;;5024037;28;20414;-77
2022/01/12 07:11:44;;;;;;;1.03;0.93;;;2.60;99.90;;;;;;5017217;28;20060;-77
2022/01/12 07:14:10;;;;;;;0.77;0.77;;;2.50;99.90;;;;;;5042569;28;20044;-77
2022/01/12 07:16:36;;;;;;;0.63;0.63;;;2.50;99.90;;;;;;5041974;28;20049;-77
2022/01/12 07:19:01;;;;;;;0.60;0.60;;;2.50;99.90;;;;;;5042273;28;20037;-77
2022/01/12 07:21:27;;;;;;;0.10;0.10;;;2.50;99.90;;;;;;5024642;28;20052;-77
2022/01/12 07:23:54;;;;;;;4.83;1.00;;;2.60;99.90;;;;;;5024740;28;20045;-77
2022/01/12 07:26:21;;;;;;;1.33;0.77;;;2.50;99.90;;;;;;5041847;28;20116;-77
2022/01/12 07:28:47;;;;;;;0.20;0.20;;;2.50;99.90;;;;;;5041106;28;20037;-77
2022/01/12 07:31:13;;;;;;;0.63;0.57;;;2.50;99.90;;;;;;5042754;28;20043;-77
2022/01/12 07:33:38;;;;;;;0.70;0.70;;;2.50;99.90;;;;;;5041201;28;20130;-77
2022/01/12 07:36:04;;;;;;;1.97;1.10;;;2.50;99.90;;;;;;5042500;28;20032;-77
2022/01/12 07:38:29;;;;;;;2.03;1.47;;;2.50;99.90;;;;;;5041799;28;20454;-77
2022/01/12 07:40:55;;;;;;;1.33;0.60;;;2.50;99.90;;;;;;5042295;28;20408;-77
2022/01/12 07:43:21;;;;;;;2.10;1.17;;;2.50;99.90;;;;;;5041561;28;20119;-76
2022/01/12 07:45:46;;;;;;;0.30;0.30;;;2.50;99.90;;;;;;5041239;28;20108;-76
2022/01/12 07:48:13;;;;;;;1.97;1.47;;;2.50;99.90;;;;;;5041480;28;20116;-76
2022/01/12 07:50:39;;;;;;;1.53;1.30;;;2.50;99.90;;;;;;5040502;28;20049;-76
2022/01/12 07:53:04;;;;;;;0.20;0.20;;;2.50;99.90;;;;;;5042123;28;20477;-76
2022/01/12 07:55:30;;;;;;;0.37;0.37;;;2.50;99.90;;;;;;5042012;28;20387;-75
2022/01/12 07:57:56;;;;;;;0.60;0.60;;;2.50;99.90;;;;;;5041765;28;20395;-75
2022/01/12 08:00:22;;;;;;;0.43;0.43;;;2.50;99.90;;;;;;5041087;28;20037;-74
2022/01/12 08:02:49;;;;;;;3.80;1.23;;;2.50;99.90;;;;;;5023189;28;20061;-74
2022/01/12 08:05:15;;;;;;;0.67;0.67;;;2.50;99.90;;;;;;5042019;28;20099;-74
2022/01/12 08:07:41;;;;;;;1.27;1.27;;;2.50;99.90;;;;;;5041911;28;20446;-77
2022/01/12 08:10:08;;;;;;;0.43;0.43;;;2.50;99.90;;;;;;5040903;28;20049;-75
2022/01/12 08:12:35;;;;;;;0.97;0.97;;;2.40;99.90;;;;;;5041029;28;20261;-75
2022/01/12 08:15:01;;;;;;;1.30;1.27;;;2.50;99.90;;;;;;5040967;28;20048;-75
2022/01/12 08:17:26;;;;;;;0.83;0.83;;;2.50;99.90;;;;;;5039135;28;20430;-75
2022/01/12 08:19:55;;;;;;;2.80;1.80;;;2.50;99.90;;;;;;5040132;28;20095;-75
2022/01/12 08:22:20;;;;;;;1.50;1.40;;;2.50;99.90;;;;;;5039997;28;20041;-75
2022/01/12 08:24:46;;;;;;;3.10;1.03;;;2.50;99.90;;;;;;5022110;28;20372;-75
2022/01/12 08:27:12;;;;;;;1.20;1.10;;;2.50;99.90;;;;;;5040372;28;20132;-75
2022/01/12 08:29:37;;;;;;;1.47;1.10;;;2.50;99.90;;;;;;5034854;28;20629;-75
2022/01/12 08:32:04;;;;;;;0.87;0.87;;;2.50;99.90;;;;;;5019572;28;20306;-75
2022/01/12 08:34:29;;;;;;;1.00;1.00;;;2.50;99.90;;;;;;5002445;28;20091;-75
2022/01/12 08:36:55;;;;;;;1.20;1.10;;;2.50;99.90;;;;;;5019754;28;20084;-75
2022/01/12 08:39:22;;;;;;;13.33;1.83;;;2.50;99.90;;;;;;5019807;28;20473;-75
2022/01/12 08:41:47;;;;;;;1.33;1.23;;;2.50;99.90;;;;;;5020254;28;20070;-75
2022/01/12 08:44:13;;;;;;;1.63;1.53;;;2.50;99.90;;;;;;5020007;28;20521;-75
2022/01/12 08:46:40;;;;;;;1.30;1.10;;;2.50;99.90;;;;;;5018843;28;20037;-75
2022/01/12 08:49:06;;;;;;;0.90;0.90;;;2.50;99.90;;;;;;5019451;28;20053;-75
2022/01/12 08:51:31;;;;;;;2.23;1.50;;;2.50;99.90;;;;;;5019464;28;20615;-75
2022/01/12 08:53:57;;;;;;;0.90;0.90;;;2.50;99.90;;;;;;5019867;28;20103;-75
2022/01/12 08:56:23;;;;;;;1.73;1.63;;;2.50;99.90;;;;;;5019269;28;20511;-75
2022/01/12 08:58:49;;;;;;;0.93;0.93;;;2.60;99.90;;;;;;5019813;28;20069;-75
2022/01/12 09:01:15;;;;;;;1.40;1.30;;;2.60;99.90;;;;;;5019038;28;20072;-75
2022/01/12 09:03:41;;;;;;;1.07;1.07;;;2.60;99.90;;;;;;5019430;28;20068;-75
2022/01/12 09:06:07;;;;;;;0.90;0.90;;;2.50;99.90;;;;;;5018645;28;20124;-75
2022/01/12 09:08:34;;;;;;;0.90;0.90;;;2.60;99.90;;;;;;5018635;28;20049;-75
2022/01/12 09:11:00;;;;;;;4.13;3.83;;;2.60;99.90;;;;;;5001631;28;20045;-75
2022/01/12 09:13:26;;;;;;;1.20;1.17;;;2.50;99.90;;;;;;5018782;28;20064;-75
2022/01/12 09:15:52;;;;;;;1.63;1.53;;;2.60;99.90;;;;;;5019661;28;20033;-75
2022/01/12 09:18:18;;;;;;;1.73;1.63;;;2.60;99.90;;;;;;5000629;28;20042;-75
2022/01/12 09:20:44;;;;;;;1.53;1.43;;;2.60;99.90;;;;;;5019978;28;20049;-74
2022/01/12 09:23:10;;;;;;;1.50;1.40;;;2.60;99.90;;;;;;5019501;28;20077;-75
2022/01/12 09:25:39;;;;;;;2.03;1.53;;;2.60;99.90;;;;;;5018890;28;20077;-75
2022/01/12 09:28:08;;;;;;;1.93;1.63;;;2.60;99.90;;;;;;5019775;28;20067;-75
2022/01/12 09:30:34;;;;;;;9.43;1.03;;;2.60;99.90;;;;;;5031975;28;20041;-75
2022/01/12 09:33:00;;;;;;;1.53;1.30;;;2.60;99.90;;;;;;5038216;28;20045;-75
2022/01/12 09:35:26;;;;;;;1.60;1.50;;;2.70;99.90;;;;;;5038987;28;20103;-75
2022/01/12 09:37:52;;;;;;;1.83;1.70;;;2.70;99.90;;;;;;5038729;28;20048;-75
2022/01/12 09:40:18;;;;;;;7.23;1.60;;;2.70;99.90;;;;;;5020945;28;20116;-75
2022/01/12 09:42:47;;;;;;;4.80;2.70;;;2.70;99.90;;;;;;5039404;28;20546;-75
2022/01/12 09:45:15;;;;;;;2.30;2.03;;;2.70;99.90;;;;;;5039515;28;20091;-75
2022/01/12 09:47:42;;;;;;;2.73;2.13;;;2.70;99.90;;;;;;5037571;28;20048;-75
2022/01/12 09:50:09;;;;;;;1.37;1.27;;;2.70;99.90;;;;;;5021026;28;20458;-75
2022/01/12 09:52:35;;;;;;;1.27;1.17;;;2.70;99.90;;;;;;5039833;28;20501;-75
2022/01/12 09:55:01;;;;;;;2.37;1.80;;;2.80;99.90;;;;;;5024617;28;20140;-75
2022/01/12 09:57:26;;;;;;;0.70;0.70;;;2.80;99.90;;;;;;5042973;28;20048;-75
2022/01/12 09:59:52;;;;;;;4.70;1.90;;;2.80;99.90;;;;;;5024895;28;20507;-75
2022/01/12 10:02:19;;;;;;;1.43;1.30;;;2.80;99.90;;;;;;5041509;28;20049;-75
2022/01/12 10:04:46;;;;;;;12.53;1.70;;;2.80;99.90;;;;;;5043124;28;20052;-75
2022/01/12 10:07:13;;;;;;;2.30;1.17;;;2.80;99.90;;;;;;5025222;28;20080;-75
2022/01/12 10:09:48;;;;;;;0.87;0.87;;;2.90;99.90;;;;;;5042437;28;20043;-75
2022/01/12 10:12:19;;;;;;;1.17;1.17;;;2.90;99.90;;;;;;5009102;28;20466;-75
2022/01/12 10:14:49;;;;;;;1.73;1.27;;;2.90;99.90;;;;;;5025031;28;20095;-75
2022/01/12 10:17:17;;;;;;;1.67;1.10;;;2.90;99.90;;;;;;5041831;28;20040;-75
2022/01/12 10:19:43;;;;;;;2.73;1.53;;;2.90;99.90;;;;;;5042416;28;20055;-75
2022/01/12 10:22:14;;;;;;;2.77;1.47;;;2.90;99.90;;;;;;5042498;28;20041;-75
2022/01/12 10:24:43;;;;;;;1.60;1.50;;;3.00;99.90;;;;;;5041702;28;20041;-75
2022/01/12 10:27:18;;;;;;;3.17;2.87;;;3.00;99.90;;;;;;5042053;28;20041;-75
2022/01/12 10:29:45;;;;;;;1.27;1.17;;;3.00;99.90;;;;;;5008400;28;20079;-75
2022/01/12 10:32:16;;;;;;;5.00;1.73;;;3.00;99.90;;;;;;5023570;28;20041;-75
2022/01/12 10:34:45;;;;;;;0.70;0.70;;;3.10;99.90;;;;;;5008050;28;20079;-75
2022/01/12 10:37:13;;;;;;;1.70;1.60;;;3.10;99.90;;;;;;5042133;28;20128;-75
2022/01/12 10:39:48;;;;;;;13.33;3.10;;;3.10;99.90;;;;;;5042163;28;20069;-75
2022/01/12 10:42:17;;;;;;;2.23;1.90;;;3.10;99.90;;;;;;5042365;28;20307;-75
2022/01/12 10:44:47;;;;;;;4.73;1.90;;;3.20;99.90;;;;;;5042164;28;20570;-75
2022/01/12 10:47:21;;;;;;;1.83;1.43;;;3.20;99.90;;;;;;5041435;28;20110;-75
2022/01/12 10:49:52;;;;;;;1.67;1.57;;;3.20;99.90;;;;;;5042721;28;20091;-75
2022/01/12 10:52:18;;;;;;;1.20;1.03;;;3.30;99.90;;;;;;5029689;28;20045;-75
2022/01/12 10:54:59;;;;;;;4.77;2.00;;;3.30;99.90;;;;;;5043577;28;20307;-75
2022/01/12 10:57:28;;;;;;;1.37;1.20;;;3.30;99.90;;;;;;5042482;28;20040;-75
2022/01/12 11:00:05;;;;;;;4.30;1.87;;;3.30;99.90;;;;;;5025012;28;20103;-74
2022/01/12 11:02:33;;;;;;;22.73;2.43;;;3.40;99.90;;;;;;5036836;28;20176;-75
2022/01/12 11:04:59;;;;;;;6.70;1.10;;;3.40;99.90;;;;;;5022931;28;20058;-75
2022/01/12 11:07:26;;;;;;;7.93;1.70;;;3.50;99.90;;;;;;5022407;28;20041;-75
2022/01/12 11:09:55;;;;;;;1.07;1.00;;;3.50;99.90;;;;;;5021375;28;20056;-76
2022/01/12 11:12:21;;;;;;;5.00;2.80;;;3.60;99.90;;;;;;5023109;28;20042;-76
2022/01/12 11:14:46;;;;;;;4.43;1.73;;;3.60;99.90;;;;;;5022917;28;20053;-76
2022/01/12 11:17:12;;;;;;;2.00;1.90;;;3.70;99.90;;;;;;5020697;28;20052;-76
2022/01/12 11:19:40;;;;;;;7.47;4.40;;;3.70;99.90;;;;;;5022331;28;20041;-76
2022/01/12 11:22:34;;;;;;;6.17;3.13;;;3.80;99.90;;;;;;5021955;28;20071;-76
2022/01/12 11:24:59;;;;;;;5.10;1.70;;;3.80;99.90;;;;;;5021391;28;20045;-76
2022/01/12 11:27:25;;;;;;;2.20;1.23;;;3.80;99.90;;;;;;5022042;28;20042;-76
2022/01/12 11:29:51;;;;;;;7.00;1.23;;;3.90;99.90;;;;;;5022315;28;20049;-77
2022/01/12 11:32:22;;;;;;;3.03;2.33;;;4.00;99.90;;;;;;5020065;28;20050;-76
2022/01/12 11:34:59;;;;;;;1.60;1.50;;;3.90;99.90;;;;;;5021860;28;20136;-76
2022/01/12 11:37:25;;;;;;;1.73;0.87;;;4.00;99.90;;;;;;5021648;28;20609;-76
2022/01/12 11:39:51;;;;;;;21.03;2.67;;;4.00;99.90;;;;;;5022418;28;20435;-76
2022/01/12 11:42:18;;;;;;;9.37;1.77;;;4.10;99.90;;;;;;5020897;28;20045;-76
2022/01/12 11:44:44;;;;;;;1.67;1.37;;;4.10;99.90;;;;;;5022447;28;20506;-76
2022/01/12 11:47:15;;;;;;;2.73;1.87;;;4.20;99.90;;;;;;5021467;28;20558;-76
2022/01/12 11:49:44;;;;;;;17.40;2.80;;;4.20;99.90;;;;;;5021063;28;20030;-76
2022/01/12 11:52:19;;;;;;;5.53;2.73;;;4.30;99.90;;;;;;5021939;28;20114;-77
2022/01/12 11:54:47;;;;;;;5.30;3.43;;;4.30;99.90;;;;;;5021516;28;20120;-76
2022/01/12 11:57:18;;;;;;;11.57;3.67;;;4.30;99.90;;;;;;5021125;28;20049;-76
2022/01/12 11:59:56;;;;;;;16.93;3.90;;;4.40;99.90;;;;;;5021430;28;20037;-76
2022/01/12 12:02:43;;;;;;;11.30;2.67;;;4.40;99.90;;;;;;5026958;28;20045;-76
2022/01/12 12:05:11;;;;;;;2.40;2.20;;;4.50;99.90;;;;;;5022831;28;20045;-76
2022/01/12 12:07:54;;;;;;;3.83;2.30;;;4.60;99.90;;;;;;5020334;28;20147;-77
2022/01/12 12:10:22;;;;;;;5.17;1.20;;;4.60;99.90;;;;;;5019604;28;20131;-76
2022/01/12 12:12:50;;;;;;;20.27;1.77;;;4.60;99.90;;;;;;5019909;28;20689;-76
2022/01/12 12:15:16;;;;;;;3.47;2.77;;;4.70;99.90;;;;;;5019891;28;20042;-76
2022/01/12 12:17:42;;;;;;;6.73;2.07;;;4.70;99.90;;;;;;5018544;28;20054;-76
2022/01/12 12:20:12;;;;;;;6.37;2.43;;;4.70;99.90;;;;;;5017721;28;20060;-77
2022/01/12 12:22:40;;;;;;;10.73;2.88;;;4.80;99.90;;;;;;5001595;28;20033;-77
2022/01/12 12:25:18;;;;;;;18.73;3.47;;;4.80;99.90;;;;;;5018333;28;20044;-76
2022/01/12 12:27:49;;;;;;;5.30;1.97;;;4.90;99.90;;;;;;5016474;28;20126;-77
2022/01/12 12:30:17;;;;;;;3.23;1.60;;;4.90;99.90;;;;;;5019506;28;20602;-76
2022/01/12 12:32:45;;;;;;;7.70;2.63;;;4.90;99.90;;;;;;5018737;28;20486;-77
2022/01/12 12:35:21;;;;;;;3.03;2.57;;;5.00;99.90;;;;;;5019269;28;20052;-77
2022/01/12 12:37:58;;;;;;;4.47;3.13;;;5.00;99.90;;;;;;5018237;28;20045;-77
2022/01/12 12:40:33;;;;;;;6.07;2.85;;;5.00;99.90;;;;;;5019982;28;20041;-77
2022/01/12 12:43:14;;;;;;;10.15;1.58;;;5.10;99.90;;;;;;5019724;28;20095;-77
2022/01/12 12:45:45;;;;;;;5.38;1.85;;;5.20;99.90;;;;;;5017324;28;20054;-77
2022/01/12 12:48:19;;;;;;;4.30;2.28;;;5.10;99.90;;;;;;5020065;28;20056;-75
2022/01/12 12:50:45;;;;;;;6.38;3.45;;;5.20;99.90;;;;;;5018671;28;20049;-75
2022/01/12 12:53:11;;;;;;;7.00;3.10;;;5.30;99.90;;;;;;5019793;28;20042;-75
2022/01/12 12:55:40;;;;;;;5.20;2.83;;;5.30;99.90;;;;;;5018985;28;20049;-75
2022/01/12 12:58:07;;;;;;;1.38;1.30;;;5.30;99.90;;;;;;5018528;28;20471;-75
2022/01/12 13:00:35;;;;;;;4.90;3.03;;;5.30;99.90;;;;;;5015621;28;20325;-75
2022/01/12 13:03:02;;;;;;;1.98;1.65;;;5.30;99.90;;;;;;5032089;28;20085;-75
2022/01/12 13:05:33;;;;;;;27.45;2.20;;;5.40;99.90;;;;;;5021118;28;20048;-76
2022/01/12 13:07:59;;;;;;;1.63;1.52;;;5.40;99.90;;;;;;5022004;28;20060;-77
2022/01/12 13:10:30;;;;;;;1.25;1.15;;;5.50;99.90;;;;;;5039120;28;20033;-76
2022/01/12 13:12:59;;;;;;;7.65;2.55;;;5.50;99.90;;;;;;5039467;28;20104;-75
2022/01/12 13:15:33;;;;;;;1.38;1.27;;;5.50;99.90;;;;;;5038135;28;20565;-75
2022/01/12 13:18:09;;;;;;;19.17;1.80;;;5.50;99.90;;;;;;5038852;28;20049;-79
2022/01/12 13:23:39;;;;;;;2.13;1.25;;;5.50;99.90;;;;;;5017660;28;20048;-76
2022/01/12 13:26:09;;;;;;;4.32;1.10;;;5.50;99.90;;;;;;5037567;28;20063;-77
2022/01/12 13:28:37;;;;;;;0.40;0.40;;;5.60;99.90;;;;;;5043419;28;20052;-77
2022/01/12 13:31:12;;;;;;;0.65;0.50;;;5.60;99.90;;;;;;5025420;28;20041;-76
2022/01/12 13:33:39;;;;;;;2.97;1.35;;;5.60;99.90;;;;;;5043815;28;20059;-76
2022/01/12 13:36:17;;;;;;;1.55;1.23;;;5.60;99.90;;;;;;5025577;28;20053;-76
2022/01/12 13:38:48;;;;;;;6.93;2.67;;;5.50;99.90;;;;;;5044205;28;20491;-76
2022/01/12 13:41:17;;;;;;;31.85;3.30;;;5.60;99.90;;;;;;5027585;28;20048;-76
2022/01/12 13:43:51;;;;;;;7.30;1.15;;;5.60;99.90;;;;;;5027558;28;20120;-76
2022/01/12 13:46:18;;;;;;;1.83;1.73;;;5.70;99.90;;;;;;5041695;28;20521;-77
2022/01/12 13:49:09;;;;;;;1.20;1.05;;;5.70;99.90;;;;;;5044472;28;20354;-77
2022/01/12 13:51:39;;;;;;;2.83;1.65;;;5.70;99.90;;;;;;5025762;28;20462;-77
2022/01/12 13:54:14;;;;;;;4.13;1.27;;;5.70;99.90;;;;;;5043365;28;20040;-78
2022/01/12 13:56:46;;;;;;;0.70;0.47;;;5.70;99.90;;;;;;5023875;28;20060;-81
2022/01/12 13:59:14;;;;;;;0.40;0.40;;;5.70;99.90;;;;;;5028824;28;20392;-84
2022/01/12 14:01:41;;;;;;;2.05;1.50;;;5.70;99.90;;;;;;5022830;28;20503;-77
2022/01/12 14:04:12;;;;;;;3.67;1.73;;;5.70;99.90;;;;;;5040851;28;20064;-77
2022/01/12 14:06:40;;;;;;;0.93;0.73;;;5.70;99.90;;;;;;5042167;28;20045;-79
2022/01/12 14:11:52;;;;;;;0.38;0.38;;;5.80;99.90;;;;;;5039776;28;20045;-78
2022/01/12 14:14:18;;;;;;;0.25;0.25;;;5.80;99.90;;;;;;5042900;28;20094;-78
2022/01/12 14:16:46;;;;;;;1.40;1.13;;;5.80;99.90;;;;;;5041602;28;20430;-78